Time;durP1;ratioP1;P1;durP2;ratioP2;P2;SDS_P1;SDS_P2;PMS_P1;PMS_P2;Temp;Humidity;BMP_temperature;BMP_pressure;BME280_temperature;BME280_humidity;BME280_pressure;Samples;Min_cycle;Max_cycle;Signal;HPM_P1;HPM_P2
2024/01/03 00:02:01;;;;;;;;;;;6.90;99.90;;;;;;5015035;28;19932;-74
2024/01/03 00:04:27;;;;;;;;;;;7.00;99.90;;;;;;5018913;28;19926;-74
2024/01/03 00:06:54;;;;;;;;;;;7.00;99.90;;;;;;5029686;28;19925;-74
2024/01/03 00:09:20;;;;;;;;;;;6.90;99.90;;;;;;5018641;28;19925;-75
2024/01/03 00:11:47;;;;;;;;;;;6.90;99.90;;;;;;5015612;28;19932;-76
2024/01/03 00:14:22;;;;;;;;;;;6.90;99.90;;;;;;5014157;28;19926;-76
2024/01/03 00:16:48;;;;;;;;;;;6.90;99.90;;;;;;5014700;28;19925;-76
2024/01/03 00:19:21;;;;;;;;;;;6.90;99.90;;;;;;5014631;28;19925;-76
2024/01/03 00:21:47;;;;;;;;;;;6.80;99.90;;;;;;5014568;28;19925;-75
2024/01/03 00:24:15;;;;;;;;;;;6.90;99.90;;;;;;5015107;28;19933;-75
2024/01/03 00:26:42;;;;;;;;;;;6.90;99.90;;;;;;5014778;28;19926;-76
2024/01/03 00:29:31;;;;;;;;;;;6.90;99.90;;;;;;5014623;28;20342;-76
2024/01/03 00:32:00;;;;;;;;;;;6.90;99.90;;;;;;5014368;28;19925;-76
2024/01/03 00:34:39;;;;;;;;;;;6.90;99.90;;;;;;5014794;28;19926;-76
2024/01/03 00:37:15;;;;;;;;;;;6.90;99.90;;;;;;5014819;28;19925;-74
2024/01/03 00:39:41;;;;;;;;;;;6.90;99.90;;;;;;5014860;28;19933;-75
2024/01/03 00:42:08;;;;;;;;;;;6.80;99.90;;;;;;5014391;28;19926;-75
2024/01/03 00:44:34;;;;;;;;;;;6.80;99.90;;;;;;5014393;28;19932;-74
2024/01/03 00:47:05;;;;;;;;;;;6.80;99.90;;;;;;5015174;28;19933;-76
2024/01/03 00:49:32;;;;;;;;;;;6.70;99.90;;;;;;5014848;28;19925;-76
2024/01/03 00:52:00;;;;;;;;;;;6.80;99.90;;;;;;5014487;28;20295;-74
2024/01/03 00:54:27;;;;;;;;;;;6.90;99.90;;;;;;5015100;28;19926;-75
2024/01/03 00:56:54;;;;;;;;;;;6.80;99.90;;;;;;5014757;28;19929;-76
2024/01/03 00:59:20;;;;;;;;;;;6.90;99.90;;;;;;5014708;28;19932;-76
2024/01/03 01:01:48;;;;;;;;;;;6.90;99.90;;;;;;5014280;28;19925;-75
2024/01/03 01:04:16;;;;;;;;;;;6.90;99.90;;;;;;5014400;28;19925;-74
2024/01/03 01:06:42;;;;;;;;;;;6.90;99.90;;;;;;5014170;28;20387;-75
2024/01/03 06:23:03;;;;;;;;;;;6.20;99.90;;;;;;4995689;28;19933;-73
2024/01/03 06:25:31;;;;;;;;;;;6.40;99.90;;;;;;4997372;28;19926;-73
2024/01/03 06:27:57;;;;;;;;;;;6.30;99.90;;;;;;4997334;28;19937;-73
2024/01/03 06:30:24;;;;;;;;;;;6.30;99.90;;;;;;4997290;28;19932;-73
2024/01/03 06:32:51;;;;;;;;;;;6.30;99.90;;;;;;4997327;28;19933;-73
2024/01/03 06:35:18;;;;;;;;;;;6.30;99.90;;;;;;4997277;28;19926;-73
2024/01/03 06:37:44;;;;;;;;;;;6.40;99.90;;;;;;4997565;28;19925;-74
2024/01/03 06:40:12;;;;;;;;;;;6.40;99.90;;;;;;4997337;28;20016;-74
2024/01/03 06:42:39;;;;;;;;;;;6.40;99.90;;;;;;4997449;28;19925;-76
2024/01/03 06:45:06;;;;;;;;;;;6.40;99.90;;;;;;4998392;28;19926;-76
2024/01/03 06:47:32;;;;;;;;;;;6.40;99.90;;;;;;4998219;28;19925;-76
2024/01/03 06:49:59;;;;;;;;;;;6.40;99.90;;;;;;4998095;28;19925;-75
2024/01/03 06:52:26;;;;;;;;;;;6.30;99.90;;;;;;4996921;28;19933;-76
2024/01/03 06:54:54;;;;;;;;;;;6.30;99.90;;;;;;4997983;28;20016;-76
2024/01/03 06:57:22;;;;;;;;;;;6.40;99.90;;;;;;4997992;28;19932;-74
2024/01/03 06:59:48;;;;;;;;;;;6.30;99.90;;;;;;4996781;28;19933;-74
2024/01/03 07:02:15;;;;;;;;;;;6.30;99.90;;;;;;4996438;28;20303;-74
2024/01/03 07:04:41;;;;;;;;;;;6.30;99.90;;;;;;4996531;28;20387;-75
2024/01/03 07:07:08;;;;;;;;;;;6.30;99.90;;;;;;4997275;28;20426;-75
2024/01/03 07:09:34;;;;;;;;;;;6.30;99.90;;;;;;4996875;28;20291;-75
2024/01/03 07:12:01;;;;;;;;;;;6.20;99.90;;;;;;4997213;28;19949;-75
2024/01/03 07:14:29;;;;;;;;;;;6.20;99.90;;;;;;4997751;28;19930;-75
2024/01/03 07:16:55;;;;;;;;;;;6.20;99.90;;;;;;4998223;28;19926;-75
2024/01/03 07:19:22;;;;;;;;;;;6.20;99.90;;;;;;4998895;28;19933;-75
2024/01/03 07:21:48;;;;;;;;;;;6.20;99.90;;;;;;4998642;28;19926;-75
2024/01/03 07:24:15;;;;;;;;;;;6.20;99.90;;;;;;4997059;28;19933;-75
2024/01/03 07:26:41;;;;;;;;;;;6.20;99.90;;;;;;4996869;28;19926;-75
2024/01/03 07:29:08;;;;;;;;;;;6.20;99.90;;;;;;4996606;28;19937;-75
2024/01/03 07:31:36;;;;;;;;;;;6.20;99.90;;;;;;4996787;28;19929;-75
2024/01/03 07:34:03;;;;;;;;;;;6.20;99.90;;;;;;4996312;28;20300;-74
2024/01/03 07:36:29;;;;;;;;;;;6.30;99.90;;;;;;4996116;28;20295;-73
2024/01/03 07:38:58;;;;;;;;;;;6.30;99.90;;;;;;4995964;28;20273;-73
2024/01/03 07:41:24;;;;;;;;;;;6.40;99.90;;;;;;4996842;28;20287;-73
2024/01/03 07:43:51;;;;;;;;;;;6.50;99.90;;;;;;5006571;28;19926;-73
2024/01/03 07:46:18;;;;;;;;;;;6.50;99.90;;;;;;5004146;28;19929;-75
2024/01/03 07:48:46;;;;;;;;;;;6.70;99.90;;;;;;4999724;28;19926;-74
2024/01/03 07:51:12;;;;;;;;;;;6.70;99.90;;;;;;4999302;28;19926;-75
2024/01/03 07:53:39;;;;;;;;;;;6.80;99.90;;;;;;4998090;28;19932;-76
2024/01/03 07:56:07;;;;;;;;;;;6.80;99.90;;;;;;4998522;28;19925;-74
2024/01/03 07:58:34;;;;;;;;;;;6.80;99.90;;;;;;4998456;28;19933;-75
2024/01/03 08:01:00;;;;;;;;;;;6.80;99.90;;;;;;4997972;28;20387;-74
2024/01/03 08:03:27;;;;;;;;;;;6.80;99.90;;;;;;4998802;28;20387;-74
2024/01/03 08:05:55;;;;;;;;;;;6.80;99.90;;;;;;4998942;28;20406;-75
2024/01/03 08:08:21;;;;;;;;;;;6.80;99.90;;;;;;4998804;28;19929;-75
2024/01/03 08:10:48;;;;;;;;;;;6.90;99.90;;;;;;4998645;28;20026;-75
2024/01/03 08:13:14;;;;;;;;;;;6.80;99.90;;;;;;4998042;28;19933;-76
2024/01/03 08:15:41;;;;;;;;;;;6.80;99.90;;;;;;4998386;28;19926;-75
2024/01/03 08:18:08;;;;;;;;;;;6.90;99.90;;;;;;4998092;28;20403;-75
2024/01/03 08:20:35;;;;;;;;;;;7.00;99.90;;;;;;4998162;28;19933;-76
2024/01/03 08:23:02;;;;;;;;;;;7.00;99.90;;;;;;4997583;28;19926;-75
2024/01/03 08:25:29;;;;;;;;;;;7.10;99.90;;;;;;5000838;28;19926;-75
2024/01/03 08:27:56;;;;;;;;;;;7.10;99.90;;;;;;4998340;28;19926;-75
2024/01/03 08:30:22;;;;;;;;;;;7.10;99.90;;;;;;4998588;28;19933;-74
2024/01/03 08:32:49;;;;;;;;;;;7.20;99.90;;;;;;4999709;28;19930;-76
2024/01/03 08:35:15;;;;;;;;;;;7.30;99.90;;;;;;4996637;28;19926;-75
2024/01/03 08:37:42;;;;;;;;;;;7.30;99.90;;;;;;4998444;28;20352;-80
2024/01/03 08:40:10;;;;;;;;;;;7.40;99.90;;;;;;4996586;28;20306;-75
2024/01/03 08:42:37;;;;;;;;;;;7.40;99.90;;;;;;4995436;28;19925;-75
2024/01/03 08:45:04;;;;;;;;;;;7.50;99.90;;;;;;4995599;28;19925;-75
2024/01/03 08:47:30;;;;;;;;;;;7.60;99.90;;;;;;4995244;28;19925;-74
2024/01/03 08:49:57;;;;;;;;;;;7.60;99.90;;;;;;4994903;28;19933;-75
2024/01/03 08:52:24;;;;;;;;;;;7.60;99.90;;;;;;4994683;28;19981;-75
2024/01/03 08:54:50;;;;;;;;;;;7.70;99.90;;;;;;4995334;28;19926;-75
2024/01/03 08:57:18;;;;;;;;;;;7.70;99.90;;;;;;4995187;28;19933;-75
2024/01/03 08:59:45;;;;;;;;;;;7.70;99.90;;;;;;4995247;28;19933;-76
2024/01/03 09:02:11;;;;;;;;;;;7.80;99.90;;;;;;4994983;28;19926;-76
2024/01/03 09:04:38;;;;;;;;;;;7.70;99.90;;;;;;4994517;28;19929;-76
2024/01/03 09:07:04;;;;;;;;;;;7.80;99.90;;;;;;4994510;28;19926;-76
2024/01/03 09:09:31;;;;;;;;;;;7.80;99.90;;;;;;4994566;28;19926;-76
2024/01/03 09:11:57;;;;;;;;;;;7.80;99.90;;;;;;4995538;28;19926;-75
2024/01/03 09:14:25;;;;;;;;;;;7.80;99.90;;;;;;4994508;28;20016;-74
2024/01/03 09:16:52;;;;;;;;;;;7.90;99.90;;;;;;4994565;28;19933;-74
2024/01/03 09:19:19;;;;;;;;;;;7.80;99.90;;;;;;4994494;28;19932;-75
2024/01/03 09:21:46;;;;;;;;;;;7.90;99.90;;;;;;4994454;28;20275;-75
2024/01/03 09:24:12;;;;;;;;;;;7.90;99.90;;;;;;4994019;28;19932;-75
2024/01/03 09:26:39;;;;;;;;;;;8.10;99.90;;;;;;4994409;28;19972;-75
2024/01/03 09:29:06;;;;;;;;;;;8.40;99.90;;;;;;4994905;28;19933;-75
2024/01/03 09:31:41;;;;;;;;;;;8.70;99.90;;;;;;4994410;28;19925;-75
2024/01/03 09:34:07;;;;;;;;;;;8.80;99.90;;;;;;4995044;28;19926;-75
2024/01/03 09:36:34;;;;;;;;;;;8.90;99.90;;;;;;4994709;28;19925;-75
2024/01/03 09:39:00;;;;;;;;;;;8.90;99.90;;;;;;4994513;28;19926;-75
2024/01/03 09:41:27;;;;;;;;;;;8.90;99.90;;;;;;4994175;28;19932;-75
2024/01/03 09:43:55;;;;;;;;;;;9.00;99.90;;;;;;4994094;28;19930;-75
2024/01/03 09:46:22;;;;;;;;;;;9.00;99.90;;;;;;4994142;28;19926;-75
2024/01/03 09:48:49;;;;;;;;;;;8.90;99.90;;;;;;4997862;28;19933;-75
2024/01/03 09:51:19;;;;;;;;;;;9.00;99.90;;;;;;4997881;28;19932;-75
2024/01/03 09:53:45;;;;;;;;;;;9.20;99.90;;;;;;4998044;28;19926;-75
2024/01/03 09:56:12;;;;;;;;;;;9.40;99.90;;;;;;4997945;28;19925;-75
2024/01/03 09:58:39;;;;;;;;;;;9.40;99.90;;;;;;4998745;28;19933;-75
2024/01/03 10:01:05;;;;;;;;;;;9.30;99.90;;;;;;4997914;28;19933;-75
2024/01/03 10:03:32;;;;;;;;;;;9.30;99.90;;;;;;4997322;28;19932;-75
2024/01/03 10:06:10;;;;;;;;;;;9.10;99.90;;;;;;5000253;28;19933;-74
2024/01/03 10:08:36;;;;;;;;;;;9.10;99.90;;;;;;5000157;28;19941;-74
2024/01/03 10:11:18;;;;;;;;;;;8.90;99.90;;;;;;4999964;28;19926;-75
2024/01/03 10:13:44;;;;;;;;;;;8.80;99.90;;;;;;4999862;28;19933;-74
2024/01/03 10:16:11;;;;;;;;;;;8.80;99.90;;;;;;5000377;28;19926;-75
2024/01/03 10:18:38;;;;;;;;;;;8.70;99.90;;;;;;5000574;28;19949;-75
2024/01/03 10:21:13;;;;;;;;;;;8.70;99.90;;;;;;5001471;28;19926;-75
2024/01/03 10:23:40;;;;;;;;;;;8.60;99.90;;;;;;5000607;28;19930;-75
2024/01/03 10:26:06;;;;;;;;;;;8.60;99.90;;;;;;5000069;28;20383;-76
2024/01/03 10:28:34;;;;;;;;;;;8.50;99.90;;;;;;4999379;28;19947;-74
2024/01/03 10:31:04;;;;;;;;;;;8.50;99.90;;;;;;5000103;28;19930;-75
2024/01/03 10:33:31;;;;;;;;;;;8.40;99.90;;;;;;4999259;28;19930;-74
2024/01/03 10:35:58;;;;;;;;;;;8.30;99.90;;;;;;4997267;28;20407;-74
2024/01/03 10:38:26;;;;;;;;;;;8.20;99.90;;;;;;4997395;28;19933;-75
2024/01/03 10:40:53;;;;;;;;;;;8.20;99.90;;;;;;4997177;28;19933;-75
2024/01/03 10:43:20;;;;;;;;;;;8.20;99.90;;;;;;4997016;28;19937;-75
2024/01/03 10:45:46;;;;;;;;;;;8.20;99.90;;;;;;4997085;28;19933;-75
2024/01/03 10:48:13;;;;;;;;;;;8.20;99.90;;;;;;4996922;28;20320;-75
2024/01/03 10:50:42;;;;;;;;;;;8.30;99.90;;;;;;4996566;28;19933;-75
2024/01/03 10:53:09;;;;;;;;;;;8.30;99.90;;;;;;4996586;28;20414;-75
2024/01/03 10:55:39;;;;;;;;;;;8.40;99.90;;;;;;4996956;28;19969;-75
2024/01/03 10:58:11;;;;;;;;;;;8.40;99.90;;;;;;4996696;28;19926;-75
2024/01/03 11:00:41;;;;;;;;;;;8.40;99.90;;;;;;4996958;28;19933;-75
2024/01/03 11:03:13;;;;;;;;;;;8.40;99.90;;;;;;5003580;28;19949;-75
2024/01/03 11:05:44;;;;;;;;;;;8.50;99.90;;;;;;5005730;28;19936;-75
2024/01/03 11:08:14;;;;;;;;;;;8.50;99.90;;;;;;4997395;28;20294;-75
2024/01/03 11:10:48;;;;;;;;;;;8.60;99.90;;;;;;4996476;28;19930;-75
2024/01/03 11:13:30;;;;;;;;;;;8.70;99.90;;;;;;4996471;28;20272;-75
2024/01/03 11:15:58;;;;;;;;;;;8.60;99.90;;;;;;4996455;28;19925;-75
2024/01/03 11:18:42;;;;;;;;;;;8.60;99.90;;;;;;4996346;28;20020;-75
2024/01/03 11:21:26;;;;;;;;;;;8.60;99.90;;;;;;4995901;28;20288;-75
2024/01/03 11:23:53;;;;;;;;;;;8.70;99.90;;;;;;4995748;28;19925;-75
2024/01/03 11:26:41;;;;;;;;;;;8.70;99.90;;;;;;4996565;28;19926;-75
2024/01/03 11:29:08;;;;;;;;;;;8.60;99.90;;;;;;4996681;28;19926;-75
2024/01/03 11:31:49;;;;;;;;;;;8.70;99.90;;;;;;4996191;28;19926;-76
2024/01/03 11:34:30;;;;;;;;;;;8.70;99.90;;;;;;4995956;28;19930;-75
2024/01/03 11:36:57;;;;;;;;;;;8.70;99.90;;;;;;4996066;28;19925;-75
2024/01/03 11:39:33;;;;;;;;;;;8.60;99.90;;;;;;4996045;28;19933;-75
2024/01/03 11:42:01;;;;;;;;;;;8.60;99.90;;;;;;4995638;28;19926;-74
2024/01/03 11:44:27;;;;;;;;;;;8.50;99.90;;;;;;4995624;28;20283;-74
2024/01/03 11:46:57;;;;;;;;;;;8.50;99.90;;;;;;4995869;28;20392;-78
2024/01/03 11:49:24;;;;;;;;;;;8.50;99.90;;;;;;4997001;28;19926;-78
2024/01/03 11:51:51;;;;;;;;;;;8.40;99.90;;;;;;4995859;28;19929;-77
2024/01/03 11:54:21;;;;;;;;;;;8.40;99.90;;;;;;4995802;28;19926;-78
2024/01/03 11:56:47;;;;;;;;;;;8.50;99.90;;;;;;4996735;28;19980;-78
2024/01/03 11:59:19;;;;;;;;;;;8.50;99.90;;;;;;4995904;28;19926;-77
2024/01/03 12:01:55;;;;;;;;;;;8.60;99.90;;;;;;4995310;28;20401;-76
2024/01/03 12:04:22;;;;;;;;;;;8.50;99.90;;;;;;4995466;28;19977;-77
2024/01/03 12:06:50;;;;;;;;;;;8.70;99.90;;;;;;4994957;28;21304;-77
2024/01/03 12:09:17;;;;;;;;;;;8.60;99.90;;;;;;4995232;28;19926;-75
2024/01/03 12:11:44;;;;;;;;;;;8.50;99.90;;;;;;4995451;28;19926;-77
2024/01/03 12:14:11;;;;;;;;;;;8.50;99.90;;;;;;4995171;28;20284;-76
2024/01/03 12:16:48;;;;;;;;;;;8.40;99.90;;;;;;4995446;28;19926;-76
2024/01/03 12:19:22;;;;;;;;;;;8.40;99.90;;;;;;4995798;28;19933;-76
2024/01/03 12:21:53;;;;;;;;;;;8.40;99.90;;;;;;4995951;28;19926;-76
2024/01/03 12:24:19;;;;;;;;;;;8.30;99.90;;;;;;4995477;28;19925;-76
2024/01/03 12:26:48;;;;;;;;;;;8.30;99.90;;;;;;4995504;28;19930;-77
2024/01/03 12:29:15;;;;;;;;;;;8.40;99.90;;;;;;4996275;28;19929;-77
2024/01/03 12:31:41;;;;;;;;;;;8.30;99.90;;;;;;4999223;28;19997;-76
2024/01/03 12:34:09;;;;;;;;;;;8.40;99.90;;;;;;4998146;28;19941;-76
2024/01/03 12:36:36;;;;;;;;;;;8.40;99.90;;;;;;4997872;28;19926;-76
2024/01/03 12:39:03;;;;;;;;;;;8.40;99.90;;;;;;5022307;23;19933;-77
2024/01/03 12:41:29;;;;;;;;;;;8.40;99.90;;;;;;4998093;28;19957;-74
2024/01/03 12:43:56;;;;;;;;;;;8.40;99.90;;;;;;4997748;28;19933;-74
2024/01/03 12:46:23;;;;;;;;;;;8.40;99.90;;;;;;4997428;28;19926;-74
2024/01/03 12:48:50;;;;;;;;;;;8.50;99.90;;;;;;5011366;28;20382;-74
2024/01/03 12:51:18;;;;;;;;;;;8.60;99.90;;;;;;5016652;28;19925;-74
2024/01/03 12:53:44;;;;;;;;;;;8.40;99.90;;;;;;5015402;28;19926;-75
2024/01/03 12:56:11;;;;;;;;;;;8.40;99.90;;;;;;5015047;28;19929;-75
2024/01/03 12:58:37;;;;;;;;;;;8.40;99.90;;;;;;5014567;28;19932;-74
2024/01/03 13:01:05;;;;;;;;;;;8.40;99.90;;;;;;5014617;28;20011;-75
2024/01/03 13:03:31;;;;;;;;;;;8.40;99.90;;;;;;5014382;28;20306;-75
2024/01/03 13:05:58;;;;;;;;;;;8.30;99.90;;;;;;5014379;28;20290;-74
2024/01/03 13:08:26;;;;;;;;;;;8.30;99.90;;;;;;5014276;28;19949;-73
2024/01/03 13:10:53;;;;;;;;;;;8.30;99.90;;;;;;5014404;28;20383;-72
2024/01/03 13:13:19;;;;;;;;;;;8.30;99.90;;;;;;5014549;28;19925;-75
2024/01/03 13:15:49;;;;;;;;;;;8.20;99.90;;;;;;5014245;28;19933;-72
2024/01/03 13:18:15;;;;;;;;;;;8.30;99.90;;;;;;5014583;28;19925;-72
2024/01/03 13:20:42;;;;;;;;;;;8.30;99.90;;;;;;5015107;28;19930;-73
2024/01/03 13:23:09;;;;;;;;;;;8.40;99.90;;;;;;5019278;28;19925;-74
2024/01/03 13:25:36;;;;;;;;;;;8.50;99.90;;;;;;5018506;28;20374;-73
2024/01/03 13:28:03;;;;;;;;;;;8.60;99.90;;;;;;5019174;28;19932;-74
2024/01/03 13:30:30;;;;;;;;;;;8.70;99.90;;;;;;5019339;28;19925;-72
2024/01/03 13:32:57;;;;;;;;;;;8.70;99.90;;;;;;5020196;28;19948;-71
2024/01/03 13:35:23;;;;;;;;;;;8.80;99.90;;;;;;5020160;28;19933;-72
2024/01/03 13:37:50;;;;;;;;;;;8.80;99.90;;;;;;5019621;28;19972;-71
2024/01/03 13:40:17;;;;;;;;;;;8.80;99.90;;;;;;5018867;28;19933;-73
2024/01/03 13:42:45;;;;;;;;;;;8.90;99.90;;;;;;5018490;28;19926;-73
2024/01/03 13:45:12;;;;;;;;;;;8.90;99.90;;;;;;5018422;28;20284;-72
2024/01/03 13:47:39;;;;;;;;;;;8.90;99.90;;;;;;5017948;28;19932;-71
2024/01/03 13:50:06;;;;;;;;;;;9.00;99.90;;;;;;5019189;28;19932;-72
2024/01/03 13:52:33;;;;;;;;;;;9.00;99.90;;;;;;5018277;28;20294;-72
2024/01/03 13:55:00;;;;;;;;;;;9.00;99.90;;;;;;5018284;28;20012;-72
2024/01/03 13:57:27;;;;;;;;;;;9.00;99.90;;;;;;5017949;28;19929;-71
2024/01/03 13:59:55;;;;;;;;;;;9.00;99.90;;;;;;5018186;28;19925;-72
2024/01/03 14:02:22;;;;;;;;;;;9.00;99.90;;;;;;5017650;28;19930;-73
2024/01/03 14:04:48;;;;;;;;;;;9.00;99.90;;;;;;5017486;28;20023;-71
2024/01/03 14:07:15;;;;;;;;;;;9.00;99.90;;;;;;5017590;28;19925;-72
2024/01/03 14:09:42;;;;;;;;;;;9.00;99.90;;;;;;5017772;28;19930;-73
2024/01/03 14:12:08;;;;;;;;;;;9.40;99.90;;;;;;5017724;28;19980;-71
2024/01/03 14:14:35;;;;;;;;;;;9.10;99.90;;;;;;5018517;28;19933;-71
2024/01/03 14:17:04;;;;;;;;;;;9.00;99.90;;;;;;5025665;28;19929;-71
2024/01/03 14:19:31;;;;;;;;;;;9.00;99.90;;;;;;5025993;28;20050;-72
2024/01/03 14:21:59;;;;;;;;;;;9.00;99.90;;;;;;5017448;28;19926;-71
2024/01/03 14:24:26;;;;;;;;;;;9.00;99.90;;;;;;5017328;28;19932;-71
2024/01/03 14:26:53;;;;;;;;;;;9.00;99.90;;;;;;5017488;28;19925;-72
2024/01/03 14:29:20;;;;;;;;;;;9.00;99.90;;;;;;5017189;28;20352;-72
2024/01/03 14:31:47;;;;;;;;;;;9.00;99.90;;;;;;5018703;28;19925;-72
2024/01/03 14:34:15;;;;;;;;;;;9.00;99.90;;;;;;5017666;28;19925;-72
2024/01/03 14:36:42;;;;;;;;;;;9.00;99.90;;;;;;5018293;28;20394;-72
2024/01/03 14:39:08;;;;;;;;;;;8.90;99.90;;;;;;5018814;28;19933;-72
2024/01/03 14:41:36;;;;;;;;;;;8.90;99.90;;;;;;5016866;28;19933;-72
2024/01/03 14:44:05;;;;;;;;;;;8.90;99.90;;;;;;5016807;28;19929;-72
2024/01/03 14:46:33;;;;;;;;;;;8.90;99.90;;;;;;5016762;28;19932;-72
2024/01/03 14:49:00;;;;;;;;;;;8.90;99.90;;;;;;5016457;28;19930;-72
2024/01/03 14:51:28;;;;;;;;;;;8.90;99.90;;;;;;5016686;28;20322;-71
2024/01/03 14:53:56;;;;;;;;;;;8.90;99.90;;;;;;5016680;28;19929;-71
2024/01/03 14:56:22;;;;;;;;;;;8.90;99.90;;;;;;5016908;28;19930;-72
2024/01/03 14:58:49;;;;;;;;;;;8.90;99.90;;;;;;5017068;28;19925;-73
2024/01/03 15:01:16;;;;;;;;;;;8.90;99.90;;;;;;5016748;28;19926;-72
2024/01/03 15:03:43;;;;;;;;;;;8.90;99.90;;;;;;5016911;28;20381;-73
2024/01/03 15:06:09;;;;;;;;;;;8.90;99.90;;;;;;5017478;28;19926;-74
2024/01/03 15:08:37;;;;;;;;;;;8.90;99.90;;;;;;5017884;28;19926;-73
2024/01/03 15:11:05;;;;;;;;;;;8.90;99.90;;;;;;5017998;28;20012;-73
2024/01/03 15:13:31;;;;;;;;;;;9.00;99.90;;;;;;5017980;28;19932;-72
2024/01/03 15:15:58;;;;;;;;;;;9.00;99.90;;;;;;5016886;28;20375;-73
2024/01/03 15:18:25;;;;;;;;;;;9.00;99.90;;;;;;5016258;28;20386;-73
2024/01/03 15:20:52;;;;;;;;;;;9.00;99.90;;;;;;5016800;28;19935;-72
2024/01/03 15:23:18;;;;;;;;;;;8.90;99.90;;;;;;5016822;28;19925;-72
2024/01/03 15:25:47;;;;;;;;;;;8.90;99.90;;;;;;5016910;28;19926;-72
2024/01/03 15:28:15;;;;;;;;;;;9.00;99.90;;;;;;5016456;28;19926;-72
2024/01/03 15:30:42;;;;;;;;;;;8.80;99.90;;;;;;5016833;28;19994;-72
2024/01/03 15:33:10;;;;;;;;;;;8.80;99.90;;;;;;5016485;28;19933;-72
2024/01/03 15:35:37;;;;;;;;;;;8.80;99.90;;;;;;5016419;28;19932;-71
2024/01/03 15:38:03;;;;;;;;;;;8.80;99.90;;;;;;5015548;28;20016;-72
2024/01/03 15:40:30;;;;;;;;;;;8.80;99.90;;;;;;5016094;28;20395;-72
2024/01/03 15:42:59;;;;;;;;;;;8.70;99.90;;;;;;5016960;28;19979;-73
2024/01/03 15:45:26;;;;;;;;;;;8.70;99.90;;;;;;5016726;28;19929;-74
2024/01/03 15:47:53;;;;;;;;;;;8.60;99.90;;;;;;5018681;28;19925;-74
2024/01/03 15:50:20;;;;;;;;;;;8.60;99.90;;;;;;5016553;28;20271;-74
2024/01/03 15:52:46;;;;;;;;;;;8.60;99.90;;;;;;5016113;28;20026;-74
2024/01/03 15:55:13;;;;;;;;;;;8.60;99.90;;;;;;5016468;28;19925;-73
2024/01/03 15:57:41;;;;;;;;;;;8.60;99.90;;;;;;5016243;28;19925;-73
2024/01/03 16:00:10;;;;;;;;;;;8.60;99.90;;;;;;5015851;28;20401;-73
2024/01/03 16:02:36;;;;;;;;;;;8.50;99.90;;;;;;5016045;28;20379;-74
2024/01/03 16:05:03;;;;;;;;;;;8.50;99.90;;;;;;5016592;28;19926;-74
2024/01/03 16:07:30;;;;;;;;;;;8.40;99.90;;;;;;5016381;28;19932;-74
2024/01/03 16:09:57;;;;;;;;;;;8.50;99.90;;;;;;5017758;28;19929;-72
2024/01/03 16:12:24;;;;;;;;;;;8.40;99.90;;;;;;5016740;28;19932;-72
2024/01/03 16:14:52;;;;;;;;;;;8.50;99.90;;;;;;5018163;28;19925;-72
2024/01/03 16:17:20;;;;;;;;;;;8.40;99.90;;;;;;5017425;28;19929;-72
2024/01/03 16:19:47;;;;;;;;;;;8.40;99.90;;;;;;5016395;28;20378;-72
2024/01/03 16:22:13;;;;;;;;;;;8.10;99.90;;;;;;5017634;28;19932;-72
2024/01/03 16:24:40;;;;;;;;;;;8.00;99.90;;;;;;5016579;28;19932;-73
2024/01/03 16:27:07;;;;;;;;;;;7.90;99.90;;;;;;5016511;28;19987;-72
2024/01/03 16:29:34;;;;;;;;;;;8.00;99.90;;;;;;5016138;28;20452;-72
2024/01/03 16:32:01;;;;;;;;;;;7.80;99.90;;;;;;5016419;28;19926;-72
2024/01/03 16:34:29;;;;;;;;;;;7.70;99.90;;;;;;5016352;28;19925;-74
2024/01/03 16:36:56;;;;;;;;;;;7.70;99.90;;;;;;5015599;28;19925;-71
2024/01/03 16:39:23;;;;;;;;;;;7.60;99.90;;;;;;5015287;28;19933;-72
2024/01/03 16:41:50;;;;;;;;;;;7.50;99.90;;;;;;5015496;28;19926;-72
2024/01/03 16:44:16;;;;;;;;;;;7.50;99.90;;;;;;5015492;28;20315;-70
2024/01/03 16:46:43;;;;;;;;;;;7.50;99.90;;;;;;5015830;28;19929;-72
2024/01/03 16:49:10;;;;;;;;;;;7.50;99.90;;;;;;5016258;28;19948;-72
2024/01/03 16:51:39;;;;;;;;;;;7.50;99.90;;;;;;5019908;28;19925;-71
2024/01/03 16:54:06;;;;;;;;;;;7.50;99.90;;;;;;5019621;28;19925;-71
2024/01/03 16:56:32;;;;;;;;;;;7.50;99.90;;;;;;5014890;28;19936;-72
2024/01/03 16:58:59;;;;;;;;;;;7.60;99.90;;;;;;5015156;28;19925;-72
2024/01/03 17:01:31;;;;;;;;;;;7.50;99.90;;;;;;5016759;28;19929;-73
2024/01/03 17:03:58;;;;;;;;;;;7.50;99.90;;;;;;5017581;28;19991;-71
2024/01/03 17:06:24;;;;;;;;;;;7.50;99.90;;;;;;5016735;28;20001;-72
2024/01/03 17:08:53;;;;;;;;;;;7.50;99.90;;;;;;5014450;28;20375;-71
2024/01/03 17:11:23;;;;;;;;;;;7.50;99.90;;;;;;5015370;28;19925;-72
2024/01/03 17:13:49;;;;;;;;;;;7.60;99.90;;;;;;5015228;28;19932;-72
2024/01/03 17:16:16;;;;;;;;;;;7.60;99.90;;;;;;5015475;28;19933;-71
2024/01/03 17:18:43;;;;;;;;;;;7.70;99.90;;;;;;5015393;28;19930;-73
2024/01/03 17:21:12;;;;;;;;;;;7.60;99.90;;;;;;5014957;28;19973;-71
2024/01/03 17:23:38;;;;;;;;;;;7.60;99.90;;;;;;5015208;28;19925;-73
2024/01/03 17:26:07;;;;;;;;;;;7.60;99.90;;;;;;5016210;28;19929;-72
2024/01/03 17:28:33;;;;;;;;;;;7.60;99.90;;;;;;5021156;28;19929;-72
2024/01/03 17:31:05;;;;;;;;;;;7.60;99.90;;;;;;5018756;28;19925;-72
2024/01/03 17:33:32;;;;;;;;;;;7.60;99.90;;;;;;5018461;28;19925;-70
2024/01/03 17:35:58;;;;;;;;;;;7.60;99.90;;;;;;5019882;28;19925;-71
2024/01/03 17:38:25;;;;;;;;;;;7.60;99.90;;;;;;5018672;28;19932;-72
2024/01/03 17:40:52;;;;;;;;;;;7.60;99.90;;;;;;5016159;28;19932;-71
2024/01/03 17:43:19;;;;;;;;;;;7.60;99.90;;;;;;5016177;28;19925;-72
2024/01/03 17:45:46;;;;;;;;;;;7.70;99.90;;;;;;5016367;28;19933;-72
2024/01/03 17:48:12;;;;;;;;;;;7.70;99.90;;;;;;5015784;28;19926;-72
2024/01/03 17:50:39;;;;;;;;;;;7.80;99.90;;;;;;5016058;28;19926;-74
2024/01/03 17:53:06;;;;;;;;;;;7.70;99.90;;;;;;5015951;28;20383;-72
2024/01/03 17:55:32;;;;;;;;;;;7.70;99.90;;;;;;5016498;28;19925;-73
2024/01/03 17:57:59;;;;;;;;;;;7.70;99.90;;;;;;5018209;28;19926;-71
2024/01/03 18:00:27;;;;;;;;;;;7.70;99.90;;;;;;5015389;28;19932;-70
2024/01/03 18:02:54;;;;;;;;;;;7.60;99.90;;;;;;5015467;28;19935;-70
2024/01/03 18:05:21;;;;;;;;;;;7.50;99.90;;;;;;5016173;28;19933;-69
2024/01/03 18:07:48;;;;;;;;;;;7.50;99.90;;;;;;5016986;28;19925;-70
2024/01/03 18:10:15;;;;;;;;;;;7.40;99.90;;;;;;5021006;28;19969;-71
2024/01/03 18:12:41;;;;;;;;;;;7.30;99.90;;;;;;5020152;28;19948;-71
2024/01/03 18:15:08;;;;;;;;;;;7.20;99.90;;;;;;5018922;28;19933;-70
2024/01/03 18:17:40;;;;;;;;;;;7.20;99.90;;;;;;5019235;28;19933;-70
2024/01/03 18:20:08;;;;;;;;;;;7.10;99.90;;;;;;5019654;28;19926;-73
2024/01/03 18:22:37;;;;;;;;;;;7.00;99.90;;;;;;5019587;28;19972;-71
2024/01/03 18:25:04;;;;;;;;;;;6.80;99.90;;;;;;5019066;28;19996;-72
2024/01/03 18:27:31;;;;;;;;;;;6.70;99.90;;;;;;5018003;28;19932;-71
2024/01/03 18:29:58;;;;;;;;;;;6.50;99.90;;;;;;5018471;28;19933;-71
2024/01/03 18:32:26;;;;;;;;;;;6.30;99.90;;;;;;5017400;28;19933;-71
2024/01/03 18:34:55;;;;;;;;;;;6.20;99.90;;;;;;5017795;28;19925;-71
2024/01/03 18:37:22;;;;;;;;;;;6.10;99.90;;;;;;5017015;28;20004;-71
2024/01/03 18:39:49;;;;;;;;;;;5.90;99.90;;;;;;5017577;28;19925;-71
2024/01/03 18:42:15;;;;;;;;;;;5.90;99.90;;;;;;5017588;28;19925;-72
2024/01/03 18:44:42;;;;;;;;;;;5.80;99.90;;;;;;5019965;28;19926;-71
2024/01/03 18:47:09;;;;;;;;;;;5.80;99.90;;;;;;5018591;28;19933;-71
2024/01/03 18:49:36;;;;;;;;;;;5.70;99.90;;;;;;5019284;28;19926;-72
2024/01/03 18:52:04;;;;;;;;;;;5.60;99.90;;;;;;5019736;28;20338;-73
2024/01/03 18:54:32;;;;;;;;;;;5.60;99.90;;;;;;5019508;28;19926;-72
2024/01/03 18:56:58;;;;;;;;;;;5.60;99.90;;;;;;5019240;28;19926;-73
2024/01/03 18:59:25;;;;;;;;;;;5.50;99.90;;;;;;5019271;28;20406;-72
2024/01/03 19:01:52;;;;;;;;;;;5.40;99.90;;;;;;5018868;28;19925;-72
2024/01/03 19:04:19;;;;;;;;;;;5.40;99.90;;;;;;5018496;28;19932;-73
2024/01/03 19:06:45;;;;;;;;;;;5.40;99.90;;;;;;5017610;28;19976;-70
2024/01/03 19:09:13;;;;;;;;;;;5.30;99.90;;;;;;5017039;28;19926;-70
2024/01/03 19:11:40;;;;;;;;;;;5.30;99.90;;;;;;5018039;28;19926;-72
2024/01/03 19:14:07;;;;;;;;;;;5.30;99.90;;;;;;5017910;28;19933;-72
2024/01/03 19:16:34;;;;;;;;;;;5.30;99.90;;;;;;5017935;28;19933;-72
2024/01/03 19:19:03;;;;;;;;;;;5.30;99.90;;;;;;5017562;28;19941;-71
2024/01/03 19:21:30;;;;;;;;;;;5.30;99.90;;;;;;5017888;28;19926;-71
2024/01/03 19:23:57;;;;;;;;;;;5.30;99.90;;;;;;5018475;28;20306;-73
2024/01/03 19:26:26;;;;;;;;;;;5.40;99.90;;;;;;5017217;28;20290;-72
2024/01/03 19:28:53;;;;;;;;;;;5.30;99.90;;;;;;5017629;28;19926;-72
2024/01/03 19:31:20;;;;;;;;;;;5.30;99.90;;;;;;5018102;28;19957;-72
2024/01/03 19:33:52;;;;;;;;;;;5.30;99.90;;;;;;5030004;23;19930;-75
2024/01/03 19:36:19;;;;;;;;;;;5.50;99.90;;;;;;5000671;28;19989;-76
2024/01/03 19:38:46;;;;;;;;;;;5.30;99.90;;;;;;4999582;28;19926;-76
2024/01/03 19:41:12;;;;;;;;;;;5.30;99.90;;;;;;4998939;28;19972;-75
2024/01/03 19:43:40;;;;;;;;;;;5.30;99.90;;;;;;5009851;28;19926;-73
2024/01/03 19:46:07;;;;;;;;;;;5.40;99.90;;;;;;5017170;28;19930;-75
2024/01/03 19:48:34;;;;;;;;;;;5.40;99.90;;;;;;5019198;28;19925;-74